Time;durP1;ratioP1;P1;durP2;ratioP2;P2;SDS_P1;SDS_P2;PMS_P1;PMS_P2;Temp;Humidity;BMP_temperature;BMP_pressure;BME280_temperature;BME280_humidity;BME280_pressure;Samples;Min_cycle;Max_cycle;Signal;HPM_P1;HPM_P2
2023/08/28 00:00:47;;;;;;;3.97;1.50;;;15.60;99.90;15.60;100041.00;;;;5021764;27;109482;-64
2023/08/28 00:03:12;;;;;;;1.40;1.30;;;15.60;99.90;15.60;100052.00;;;;5022867;27;109948;-64
2023/08/28 00:05:38;;;;;;;0.98;0.93;;;15.80;99.90;15.60;100042.00;;;;5021665;27;108807;-64
2023/08/28 00:08:05;;;;;;;1.30;1.20;;;15.60;99.90;15.60;100048.00;;;;5022794;27;116339;-63
2023/08/28 00:10:33;;;;;;;2.70;1.88;;;15.60;99.90;15.60;100052.00;;;;5028732;27;87778;-63
2023/08/28 00:12:59;;;;;;;2.30;1.35;;;15.60;99.90;15.60;100062.00;;;;5025914;27;108635;-63
2023/08/28 00:15:25;;;;;;;1.30;1.00;;;15.60;99.90;15.60;100064.00;;;;5025979;27;116567;-63
2023/08/28 00:17:50;;;;;;;0.98;0.82;;;15.60;99.90;15.60;100056.00;;;;5022330;27;117350;-63
2023/08/28 00:20:16;;;;;;;2.17;1.05;;;15.60;99.90;15.60;100065.00;;;;5025365;27;109941;-64
2023/08/28 00:22:42;;;;;;;1.58;1.48;;;15.60;99.90;15.60;100057.00;;;;5021368;27;96597;-64
2023/08/28 00:25:09;;;;;;;0.75;0.75;;;15.60;99.90;15.60;100065.00;;;;5021488;27;105783;-64
2023/08/28 00:27:35;;;;;;;1.23;0.75;;;15.60;99.90;15.60;100070.00;;;;5022416;27;89445;-63
2023/08/28 00:30:03;;;;;;;0.90;0.73;;;15.50;99.90;15.60;100074.00;;;;5007400;27;88302;-63
2023/08/28 00:32:29;;;;;;;1.25;1.08;;;15.50;99.90;15.60;100080.00;;;;5022323;27;88989;-63
2023/08/28 00:34:54;;;;;;;1.20;0.98;;;15.50;99.90;15.60;100080.00;;;;5021514;27;118068;-64
2023/08/28 00:37:20;;;;;;;0.73;0.63;;;15.50;99.90;15.50;100075.00;;;;5025134;27;88701;-64
2023/08/28 00:39:46;;;;;;;0.80;0.75;;;15.50;99.90;15.50;100074.00;;;;5018287;27;109939;-64
2023/08/28 00:42:12;;;;;;;1.95;1.35;;;15.50;99.90;15.50;100077.00;;;;5012620;27;108910;-64
2023/08/28 00:44:38;;;;;;;0.73;0.73;;;15.40;99.90;15.50;100069.00;;;;5022221;27;88321;-62
2023/08/28 00:47:05;;;;;;;0.80;0.80;;;15.40;99.90;15.40;100083.00;;;;5025068;27;116350;-63
2023/08/28 00:49:32;;;;;;;1.30;0.80;;;15.40;99.90;15.40;100069.00;;;;5019680;27;94391;-63
2023/08/28 00:51:59;;;;;;;1.30;1.20;;;15.40;99.90;15.40;100068.00;;;;5022003;27;109021;-64
2023/08/28 00:54:24;;;;;;;1.48;0.60;;;15.40;99.90;15.40;100061.00;;;;5006408;27;89612;-64
2023/08/28 00:56:53;;;;;;;0.98;0.90;;;15.30;99.90;15.40;100069.00;;;;5024829;27;89564;-64
2023/08/28 00:59:18;;;;;;;1.27;0.85;;;15.30;99.90;15.30;100073.00;;;;5012451;27;102084;-64
2023/08/28 01:01:45;;;;;;;0.85;0.70;;;15.30;99.90;15.30;100087.00;;;;5024791;27;107704;-63
2023/08/28 01:04:10;;;;;;;0.77;0.68;;;15.20;99.90;15.30;100089.00;;;;5020300;27;118003;-64
2023/08/28 01:07:02;;;;;;;0.65;0.55;;;15.30;99.90;15.20;100096.00;;;;5019573;27;118440;-64
2023/08/28 01:09:53;;;;;;;1.10;0.93;;;15.20;99.90;15.20;100096.00;;;;5023132;27;92322;-64
2023/08/28 01:12:33;;;;;;;1.33;1.02;;;15.20;99.90;15.20;100085.00;;;;5024895;27;99595;-65
2023/08/28 01:15:21;;;;;;;0.90;0.80;;;15.20;99.90;15.10;100087.00;;;;5005083;27;108220;-64
2023/08/28 01:17:57;;;;;;;1.80;1.25;;;15.10;99.90;15.10;100083.00;;;;5018355;27;101965;-64
2023/08/28 01:20:26;;;;;;;0.80;0.80;;;15.10;99.90;15.10;100086.00;;;;5007167;27;87795;-64
2023/08/28 01:22:59;;;;;;;0.65;0.63;;;15.10;99.90;15.10;100087.00;;;;5019719;27;87903;-65
2023/08/28 01:25:26;;;;;;;1.05;0.95;;;15.10;99.90;15.10;100083.00;;;;5010722;27;88720;-64
2023/08/28 01:27:52;;;;;;;1.42;1.30;;;15.10;99.90;15.00;100085.00;;;;5009795;27;87910;-64
2023/08/28 01:30:18;;;;;;;4.30;0.65;;;15.00;99.90;15.00;100090.00;;;;5024854;27;109816;-64
2023/08/28 01:32:45;;;;;;;0.95;0.65;;;15.00;99.90;14.90;100092.00;;;;5021079;27;87232;-64
2023/08/28 01:35:15;;;;;;;0.55;0.55;;;14.90;99.90;14.90;100094.00;;;;5017860;27;116837;-64
2023/08/28 01:38:11;;;;;;;1.48;0.90;;;14.90;99.90;14.80;100100.00;;;;5023279;27;88543;-64
2023/08/28 01:40:54;;;;;;;0.90;0.80;;;14.80;99.90;14.70;100100.00;;;;4999958;27;88916;-63
2023/08/28 01:43:23;;;;;;;2.63;0.88;;;14.80;99.90;14.70;100096.00;;;;5021555;27;87904;-64
2023/08/28 01:45:52;;;;;;;2.03;1.00;;;14.70;99.90;14.70;100080.00;;;;5020135;27;88654;-64
2023/08/28 01:48:18;;;;;;;0.95;0.85;;;14.70;99.90;14.60;100082.00;;;;5004121;27;92384;-63
2023/08/28 01:50:44;;;;;;;0.73;0.73;;;14.60;99.90;14.60;100076.00;;;;5021455;27;110572;-63
2023/08/28 01:53:11;;;;;;;1.13;0.70;;;14.60;99.90;14.60;100089.00;;;;5020107;27;109302;-62
2023/08/28 01:55:45;;;;;;;1.48;1.10;;;14.70;99.90;14.50;100076.00;;;;5025100;27;88702;-65
2023/08/28 01:58:12;;;;;;;1.63;0.90;;;14.50;99.90;14.50;100086.00;;;;5018917;27;117773;-63
2023/08/28 02:00:38;;;;;;;0.90;0.88;;;14.50;99.90;14.50;100078.00;;;;5022804;27;98870;-63
2023/08/28 02:03:06;;;;;;;1.63;0.93;;;14.50;99.90;14.40;100073.00;;;;5020157;27;101515;-63
2023/08/28 02:05:32;;;;;;;0.82;0.70;;;14.40;99.90;14.40;100064.00;;;;5020730;27;89934;-63
2023/08/28 02:07:58;;;;;;;1.08;0.90;;;14.40;99.90;14.40;100075.00;;;;5020954;27;118114;-63
2023/08/28 02:10:24;;;;;;;1.92;0.82;;;14.40;99.90;14.30;100058.00;;;;5023683;27;88299;-62
2023/08/28 02:12:50;;;;;;;1.55;1.08;;;14.30;99.90;14.30;100068.00;;;;5023240;27;87857;-63
2023/08/28 02:15:15;;;;;;;0.95;0.80;;;14.30;99.90;14.20;100070.00;;;;5025152;27;112820;-63
2023/08/28 02:17:41;;;;;;;1.00;0.80;;;14.30;99.90;14.20;100074.00;;;;5024278;27;117686;-63
2023/08/28 02:20:09;;;;;;;2.10;1.17;;;14.20;99.90;14.20;100068.00;;;;5023003;27;109989;-64
2023/08/28 02:22:35;;;;;;;1.55;0.82;;;14.20;99.90;14.10;100055.00;;;;5024449;27;87056;-63
2023/08/28 02:25:01;;;;;;;1.33;1.03;;;14.10;99.90;14.00;100069.00;;;;5030741;27;87715;-63
2023/08/28 02:27:27;;;;;;;0.93;0.80;;;14.00;99.90;14.00;100070.00;;;;5022498;27;88113;-62
2023/08/28 02:29:52;;;;;;;5.95;1.40;;;14.00;99.90;14.00;100057.00;;;;5025914;27;89054;-63
2023/08/28 02:32:18;;;;;;;0.82;0.57;;;14.00;99.90;14.00;100060.00;;;;5024062;27;110204;-63
2023/08/28 02:34:44;;;;;;;0.73;0.70;;;14.00;99.90;14.00;100069.00;;;;5025250;27;88907;-62
2023/08/28 02:37:09;;;;;;;1.93;0.70;;;14.00;99.90;13.90;100079.00;;;;5025432;27;88114;-62
2023/08/28 02:39:35;;;;;;;2.20;0.93;;;13.90;99.90;13.90;100098.00;;;;5024085;27;110587;-62
2023/08/28 02:42:01;;;;;;;1.03;0.93;;;13.90;99.90;13.90;100102.00;;;;5025788;27;88502;-62
2023/08/28 02:44:26;;;;;;;1.33;0.90;;;13.90;99.90;13.90;100106.00;;;;5027274;27;116499;-62
2023/08/28 02:46:52;;;;;;;0.87;0.73;;;13.80;99.90;13.90;100119.00;;;;5026983;27;118170;-63
2023/08/28 02:49:18;;;;;;;1.43;0.93;;;13.90;99.90;13.80;100125.00;;;;5028357;27;87759;-62
2023/08/28 02:51:43;;;;;;;1.23;1.07;;;13.80;99.90;13.80;100133.00;;;;5028599;27;109216;-65
2023/08/28 02:54:09;;;;;;;0.83;0.63;;;13.80;99.90;13.80;100131.00;;;;5027139;27;117977;-63
2023/08/28 02:56:40;;;;;;;1.33;1.13;;;13.80;99.90;13.80;100127.00;;;;5024199;27;118721;-63
2023/08/28 02:59:06;;;;;;;1.27;1.17;;;13.80;99.90;13.80;100134.00;;;;5026602;27;87772;-63
2023/08/28 03:01:34;;;;;;;0.73;0.60;;;13.80;99.90;13.80;100128.00;;;;5023099;27;87985;-63
2023/08/28 03:04:04;;;;;;;1.10;0.87;;;13.80;99.90;13.80;100138.00;;;;5024590;27;89063;-63
2023/08/28 03:06:39;;;;;;;0.47;0.47;;;13.80;99.90;13.80;100140.00;;;;5026727;27;88168;-62
2023/08/28 03:09:10;;;;;;;0.73;0.70;;;13.80;99.90;13.80;100133.00;;;;5025272;27;87631;-63
2023/08/28 03:11:36;;;;;;;1.50;1.40;;;13.80;99.90;13.80;100132.00;;;;5024429;27;87513;-62
2023/08/28 03:14:03;;;;;;;0.83;0.73;;;13.80;99.90;13.80;100140.00;;;;5025906;27;94816;-63
2023/08/28 03:16:29;;;;;;;1.00;0.87;;;13.80;99.90;13.90;100144.00;;;;5026484;27;88967;-63
2023/08/28 03:18:54;;;;;;;2.90;1.53;;;13.80;99.90;13.80;100151.00;;;;5025216;27;89429;-62
2023/08/28 03:21:20;;;;;;;0.93;0.87;;;13.90;99.90;13.90;100136.00;;;;5027369;27;88035;-62
2023/08/28 03:23:46;;;;;;;1.47;0.93;;;13.90;99.90;13.90;100139.00;;;;5025909;27;87949;-63
2023/08/28 03:26:12;;;;;;;1.50;1.30;;;13.80;99.90;13.90;100139.00;;;;5022385;27;118214;-63
2023/08/28 03:28:37;;;;;;;0.80;0.70;;;13.80;99.90;13.90;100140.00;;;;5026267;27;87856;-64
2023/08/28 03:31:03;;;;;;;0.87;0.80;;;13.90;99.90;13.90;100145.00;;;;5025082;27;108869;-63
2023/08/28 03:33:29;;;;;;;1.73;1.60;;;13.80;99.90;13.90;100147.00;;;;5024227;27;94674;-63
2023/08/28 03:35:55;;;;;;;0.87;0.70;;;13.90;99.90;13.90;100147.00;;;;5026010;27;93874;-63
2023/08/28 03:38:21;;;;;;;0.80;0.80;;;13.90;99.90;13.90;100154.00;;;;5024998;27;111534;-63
2023/08/28 03:40:47;;;;;;;1.50;1.20;;;13.90;99.90;13.90;100154.00;;;;5023923;27;97448;-62
2023/08/28 03:43:13;;;;;;;1.05;0.95;;;13.90;99.90;13.90;100155.00;;;;5021100;27;118806;-62
2023/08/28 03:45:39;;;;;;;0.63;0.63;;;13.90;99.90;13.90;100157.00;;;;5025676;27;88595;-63
2023/08/28 03:48:14;;;;;;;0.80;0.80;;;13.90;99.90;13.90;100148.00;;;;5024393;27;90845;-62
2023/08/28 03:50:40;;;;;;;0.87;0.70;;;13.90;99.90;13.90;100149.00;;;;5024817;27;108225;-63
2023/08/28 03:53:05;;;;;;;1.97;1.07;;;13.90;99.90;13.90;100147.00;;;;5021863;27;117883;-63
2023/08/28 03:55:31;;;;;;;0.73;0.73;;;13.90;99.90;13.80;100142.00;;;;5024822;27;88120;-63
2023/08/28 03:58:02;;;;;;;0.73;0.73;;;13.80;99.90;13.80;100148.00;;;;5008576;27;109347;-63
2023/08/28 04:00:28;;;;;;;0.83;0.70;;;13.80;99.90;13.80;100140.00;;;;5022699;27;87029;-63
2023/08/28 04:02:54;;;;;;;0.57;0.57;;;13.80;99.90;13.80;100146.00;;;;5026973;27;103608;-64
2023/08/28 04:05:21;;;;;;;1.03;0.93;;;13.80;99.90;13.80;100152.00;;;;5027462;27;87743;-62
2023/08/28 04:07:48;;;;;;;0.90;0.80;;;13.70;99.90;13.80;100154.00;;;;5023055;27;88696;-63
2023/08/28 04:10:14;;;;;;;1.47;1.13;;;13.70;99.90;13.70;100160.00;;;;5026597;27;87924;-63
2023/08/28 04:12:39;;;;;;;1.50;1.27;;;13.70;99.90;13.70;100148.00;;;;5023031;27;119652;-63
2023/08/28 04:15:09;;;;;;;1.23;0.97;;;13.70;99.90;13.70;100150.00;;;;5024416;27;92018;-62
2023/08/28 04:17:35;;;;;;;0.83;0.83;;;13.70;99.90;13.60;100145.00;;;;5025867;27;88082;-63
2023/08/28 04:20:10;;;;;;;0.70;0.67;;;13.60;99.90;13.60;100141.00;;;;5025388;27;87753;-63
2023/08/28 04:22:37;;;;;;;0.87;0.73;;;13.60;99.90;13.60;100130.00;;;;5028422;27;88663;-62
2023/08/28 04:25:03;;;;;;;1.23;1.13;;;13.60;99.90;13.60;100129.00;;;;5022346;27;88258;-63
2023/08/28 04:27:29;;;;;;;0.77;0.77;;;13.60;99.90;13.50;100124.00;;;;5027465;27;87866;-64
2023/08/28 04:29:54;;;;;;;1.57;1.33;;;13.60;99.90;13.50;100121.00;;;;5023478;27;108816;-63
2023/08/28 04:32:20;;;;;;;1.10;0.70;;;13.50;99.90;13.50;100118.00;;;;5021844;27;119312;-63
2023/08/28 04:34:46;;;;;;;1.67;1.03;;;13.50;99.90;13.50;100125.00;;;;5025436;27;118442;-63
2023/08/28 04:37:12;;;;;;;2.50;1.20;;;13.50;99.90;13.50;100125.00;;;;5024182;27;110354;-62
2023/08/28 04:39:37;;;;;;;1.30;1.17;;;13.50;99.90;13.50;100133.00;;;;5024339;27;88073;-63
2023/08/28 04:42:03;;;;;;;1.53;1.43;;;13.50;99.90;13.50;100132.00;;;;5023472;27;117472;-63
2023/08/28 04:44:28;;;;;;;1.60;0.97;;;13.50;99.90;13.50;100143.00;;;;5021800;27;109899;-63
2023/08/28 04:46:54;;;;;;;1.90;1.27;;;13.50;99.90;13.40;100137.00;;;;5019628;27;110497;-63
2023/08/28 04:49:20;;;;;;;1.50;1.17;;;13.40;99.90;13.40;100135.00;;;;5003412;27;108442;-63
2023/08/28 04:51:45;;;;;;;1.20;0.83;;;13.40;99.90;13.40;100128.00;;;;5015353;27;116822;-63
2023/08/28 04:54:11;;;;;;;2.23;1.10;;;13.40;99.90;13.40;100134.00;;;;5022387;27;87912;-63
2023/08/28 04:56:37;;;;;;;1.13;1.03;;;13.40;99.90;13.40;100127.00;;;;5024696;27;88946;-63
2023/08/28 04:59:03;;;;;;;1.00;0.90;;;13.40;99.90;13.40;100118.00;;;;5024965;27;107242;-63
2023/08/28 05:01:29;;;;;;;1.33;0.90;;;13.40;99.90;13.40;100132.00;;;;5003178;27;89216;-63
2023/08/28 05:03:55;;;;;;;2.40;1.27;;;13.40;99.90;13.40;100126.00;;;;5021788;27;88431;-63
2023/08/28 05:06:20;;;;;;;1.47;1.00;;;13.40;99.90;13.50;100130.00;;;;5021983;27;88426;-63
2023/08/28 05:08:46;;;;;;;1.43;1.33;;;13.50;99.90;13.50;100134.00;;;;5020943;27;108311;-63
2023/08/28 05:11:12;;;;;;;1.07;1.00;;;13.50;99.90;13.60;100137.00;;;;5022645;27;92288;-63
2023/08/28 05:13:37;;;;;;;1.80;0.97;;;13.50;99.90;13.60;100134.00;;;;5020688;27;117136;-63
2023/08/28 05:16:03;;;;;;;1.33;1.23;;;13.60;99.90;13.70;100142.00;;;;5018027;27;110275;-63
2023/08/28 05:18:29;;;;;;;1.20;1.10;;;13.60;99.90;13.70;100134.00;;;;5026336;27;87710;-63
2023/08/28 05:20:54;;;;;;;1.43;1.10;;;13.10;99.90;13.80;100134.00;;;;5020991;27;119829;-64
2023/08/28 05:23:25;;;;;;;1.50;1.10;;;13.70;99.90;13.80;100141.00;;;;5020015;27;119517;-64
2023/08/28 05:25:55;;;;;;;1.63;1.10;;;13.80;99.90;13.90;100140.00;;;;5023065;27;87802;-63
2023/08/28 05:28:21;;;;;;;0.90;0.80;;;13.80;99.90;14.00;100136.00;;;;5021063;27;88162;-63
2023/08/28 05:30:47;;;;;;;1.23;1.13;;;13.90;99.90;14.10;100136.00;;;;5023536;27;117813;-63
2023/08/28 05:33:13;;;;;;;2.43;1.17;;;14.00;99.90;14.10;100138.00;;;;5021185;27;118511;-64
2023/08/28 05:35:38;;;;;;;1.37;1.23;;;14.10;99.90;14.20;100142.00;;;;5019931;27;87965;-64
2023/08/28 05:38:06;;;;;;;1.43;1.00;;;14.10;99.90;14.30;100153.00;;;;5023392;27;87411;-64
2023/08/28 05:40:32;;;;;;;1.13;1.02;;;14.20;99.90;14.30;100150.00;;;;5025098;27;88152;-63
2023/08/28 05:42:57;;;;;;;1.13;0.90;;;14.30;99.90;14.40;100152.00;;;;5025795;27;107529;-64
2023/08/28 05:45:23;;;;;;;2.58;1.33;;;14.30;99.90;14.40;100149.00;;;;5022520;27;110447;-64
2023/08/28 05:47:49;;;;;;;1.30;1.20;;;14.40;99.90;14.50;100145.00;;;;5023184;27;107086;-64
2023/08/28 05:50:17;;;;;;;1.63;1.20;;;14.40;99.90;14.60;100155.00;;;;5021339;27;115924;-64
2023/08/28 05:52:44;;;;;;;2.88;1.50;;;14.50;99.90;14.70;100150.00;;;;5021456;27;87870;-63
2023/08/28 05:55:09;;;;;;;1.25;1.15;;;14.50;99.90;14.70;100145.00;;;;5022519;27;103988;-63
2023/08/28 05:57:35;;;;;;;1.15;0.82;;;14.60;99.90;14.80;100156.00;;;;5025239;27;108464;-65
2023/08/28 06:00:04;;;;;;;1.30;1.10;;;14.70;99.90;14.90;100156.00;;;;5022629;27;102965;-64
2023/08/28 06:02:30;;;;;;;1.20;0.88;;;14.80;99.90;14.90;100154.00;;;;5023818;27;107607;-64
2023/08/28 06:04:56;;;;;;;2.00;1.75;;;14.80;99.90;15.00;100153.00;;;;5020719;27;110051;-64
2023/08/28 06:07:21;;;;;;;2.40;1.17;;;14.90;99.90;15.10;100161.00;;;;5018980;27;103946;-64
2023/08/28 06:09:47;;;;;;;3.83;3.10;;;15.00;99.90;15.20;100166.00;;;;5022384;27;117492;-64
2023/08/28 06:12:13;;;;;;;2.45;2.03;;;15.10;99.90;15.20;100174.00;;;;5022592;27;101646;-63
2023/08/28 06:14:39;;;;;;;1.92;0.88;;;15.20;99.90;15.30;100168.00;;;;5018801;27;110402;-64
2023/08/28 06:17:06;;;;;;;1.83;1.73;;;15.20;99.90;15.40;100161.00;;;;5025695;27;88101;-64
2023/08/28 06:19:32;;;;;;;0.88;0.88;;;15.30;99.90;15.50;100163.00;;;;5020406;27;93284;-63
2023/08/28 06:22:00;;;;;;;1.27;1.00;;;15.40;99.90;15.50;100157.00;;;;5022649;27;116984;-64
2023/08/28 06:24:26;;;;;;;1.38;1.27;;;15.40;99.90;15.60;100172.00;;;;5030280;27;94387;-64
2023/08/28 06:26:52;;;;;;;2.80;1.00;;;15.50;99.90;15.60;100172.00;;;;5023688;27;114004;-64
2023/08/28 06:29:17;;;;;;;2.30;1.63;;;15.50;99.90;15.70;100179.00;;;;5026121;27;91724;-63
2023/08/28 06:31:43;;;;;;;7.93;1.83;;;15.60;99.90;15.70;100181.00;;;;5022138;27;117387;-63
2023/08/28 06:34:09;;;;;;;3.58;1.58;;;15.60;99.90;15.70;100174.00;;;;5020046;27;110441;-63
2023/08/28 06:36:34;;;;;;;1.73;1.20;;;15.60;99.90;15.70;100177.00;;;;5021842;27;88924;-65
2023/08/28 06:39:00;;;;;;;1.20;0.90;;;15.70;99.90;15.80;100168.00;;;;5023721;27;117352;-63
2023/08/28 06:41:26;;;;;;;0.70;0.70;;;15.70;99.90;15.80;100168.00;;;;5002276;27;108635;-63
2023/08/28 06:43:51;;;;;;;1.38;0.88;;;15.70;99.90;15.80;100164.00;;;;5023733;27;87840;-63
2023/08/28 06:46:17;;;;;;;1.08;1.02;;;15.70;99.90;15.80;100163.00;;;;5022240;27;108950;-63
2023/08/28 06:48:43;;;;;;;2.25;1.63;;;15.70;99.90;15.90;100178.00;;;;5022496;27;118721;-62
2023/08/28 06:51:11;;;;;;;1.17;1.08;;;15.80;99.90;15.90;100173.00;;;;5022195;27;88838;-63
2023/08/28 06:53:37;;;;;;;1.25;0.82;;;15.80;99.90;15.90;100173.00;;;;5021633;27;88161;-63
2023/08/28 06:56:04;;;;;;;1.60;1.48;;;15.80;99.90;15.90;100186.00;;;;5019718;27;87871;-63
2023/08/28 06:58:30;;;;;;;3.40;1.05;;;15.90;99.90;15.90;100187.00;;;;5020626;27;89609;-62
2023/08/28 07:00:55;;;;;;;1.33;0.90;;;15.90;99.90;16.00;100182.00;;;;5023295;27;110816;-62
2023/08/28 07:03:21;;;;;;;0.77;0.77;;;15.90;99.90;16.00;100187.00;;;;5021912;27;87636;-63
2023/08/28 07:05:53;;;;;;;0.90;0.73;;;15.90;99.90;16.00;100188.00;;;;5024006;27;106709;-63
2023/08/28 07:08:18;;;;;;;1.02;0.93;;;16.10;99.90;16.10;100187.00;;;;5022727;27;87912;-63
2023/08/28 07:10:44;;;;;;;1.20;0.70;;;16.00;99.90;16.10;100187.00;;;;5023096;27;118540;-63
2023/08/28 07:13:10;;;;;;;0.80;0.80;;;16.00;99.90;16.20;100193.00;;;;5025439;27;87973;-64
2023/08/28 07:15:53;;;;;;;1.08;0.80;;;16.10;99.90;16.20;100188.00;;;;5023093;27;108465;-64
2023/08/28 07:18:19;;;;;;;1.45;1.00;;;16.10;99.90;16.30;100187.00;;;;5022020;27;87792;-64
2023/08/28 07:20:45;;;;;;;1.08;0.90;;;16.20;99.90;16.40;100202.00;;;;5022967;27;116427;-63
2023/08/28 07:23:10;;;;;;;0.90;0.60;;;16.20;99.90;16.40;100211.00;;;;5024730;27;88743;-63
2023/08/28 07:25:38;;;;;;;4.47;1.08;;;16.30;99.90;16.50;100204.00;;;;5024977;27;109000;-64
2023/08/28 07:28:06;;;;;;;1.50;0.95;;;16.30;99.90;16.50;100195.00;;;;5025814;27;88752;-64
2023/08/28 07:30:31;;;;;;;1.63;0.70;;;16.40;99.90;16.60;100203.00;;;;5021246;27;89429;-63
2023/08/28 07:32:57;;;;;;;5.72;1.27;;;16.50;99.90;16.60;100195.00;;;;5022181;27;87994;-64
2023/08/28 07:35:23;;;;;;;0.85;0.60;;;16.50;99.90;16.60;100192.00;;;;5023156;27;109933;-63
2023/08/28 07:37:48;;;;;;;0.65;0.65;;;16.50;99.90;16.70;100196.00;;;;5022154;27;117743;-63
2023/08/28 07:40:15;;;;;;;1.45;0.55;;;16.60;99.90;16.80;100208.00;;;;5024622;27;116403;-64
2023/08/28 07:42:40;;;;;;;1.70;1.25;;;16.60;99.90;16.90;100215.00;;;;5025272;27;109598;-62
2023/08/28 07:45:07;;;;;;;0.98;0.82;;;16.70;99.90;17.00;100200.00;;;;5024832;27;108770;-64
2023/08/28 07:47:32;;;;;;;0.77;0.75;;;16.80;99.90;17.10;100197.00;;;;5019195;27;106756;-61
2023/08/28 07:49:58;;;;;;;0.73;0.73;;;16.90;99.90;17.20;100192.00;;;;5021309;27;118903;-63
2023/08/28 07:52:24;;;;;;;0.70;0.50;;;17.00;99.90;17.20;100198.00;;;;5023928;27;109703;-63
2023/08/28 07:54:49;;;;;;;1.10;1.00;;;17.10;99.90;17.30;100189.00;;;;5025253;27;107643;-62
2023/08/28 07:57:15;;;;;;;0.40;0.40;;;17.10;99.90;17.40;100178.00;;;;5023402;27;118171;-63
2023/08/28 07:59:40;;;;;;;0.88;0.88;;;17.20;99.90;17.40;100171.00;;;;5024129;27;117582;-63
2023/08/28 08:02:09;;;;;;;0.73;0.73;;;17.30;99.90;17.50;100174.00;;;;5022916;27;109283;-63
2023/08/28 08:04:36;;;;;;;2.08;0.70;;;17.30;99.90;17.50;100168.00;;;;5022322;27;86925;-64
2023/08/28 08:07:01;;;;;;;1.15;1.05;;;17.40;99.90;17.60;100164.00;;;;5024999;27;88566;-63
2023/08/28 08:09:27;;;;;;;1.08;0.82;;;17.40;99.90;17.60;100150.00;;;;5024779;27;117865;-62
2023/08/28 08:11:53;;;;;;;0.68;0.68;;;17.50;99.90;17.70;100148.00;;;;5022305;27;110142;-62
2023/08/28 08:14:19;;;;;;;0.75;0.70;;;17.50;99.90;17.80;100152.00;;;;5019347;27;106735;-64
2023/08/28 08:16:45;;;;;;;0.73;0.63;;;17.60;99.90;17.80;100152.00;;;;5023890;27;88582;-63
2023/08/28 08:19:10;;;;;;;0.40;0.40;;;17.70;99.90;17.90;100161.00;;;;5021940;27;117298;-64
2023/08/28 08:21:36;;;;;;;0.80;0.52;;;17.70;99.90;18.00;100146.00;;;;5024953;27;110061;-63
2023/08/28 08:24:02;;;;;;;0.45;0.45;;;17.80;99.90;18.00;100147.00;;;;5028581;27;87869;-63
2023/08/28 08:26:28;;;;;;;0.95;0.85;;;17.80;99.90;18.10;100141.00;;;;5021102;27;104456;-63
2023/08/28 08:28:54;;;;;;;0.80;0.80;;;17.90;99.90;18.10;100144.00;;;;5021336;27;89287;-63
2023/08/28 08:31:20;;;;;;;0.85;0.85;;;17.90;99.90;18.20;100152.00;;;;5020043;27;99512;-63
2023/08/28 08:33:46;;;;;;;1.85;0.60;;;18.00;99.90;18.20;100162.00;;;;5021871;27;101060;-62
2023/08/28 08:36:14;;;;;;;0.95;0.80;;;18.10;99.90;18.30;100151.00;;;;5020361;27;118622;-62
2023/08/28 08:38:40;;;;;;;0.98;0.63;;;18.10;99.90;18.30;100157.00;;;;5018914;27;89419;-62
2023/08/28 08:41:08;;;;;;;1.27;0.60;;;18.20;99.90;18.40;100146.00;;;;5021792;27;88093;-63
2023/08/28 08:43:34;;;;;;;0.68;0.57;;;18.20;99.90;18.50;100159.00;;;;5024831;27;100661;-61
2023/08/28 08:46:08;;;;;;;0.32;0.32;;;18.30;99.90;18.60;100153.00;;;;5024307;27;107356;-62
2023/08/28 08:48:36;;;;;;;1.25;0.80;;;18.40;99.90;18.70;100147.00;;;;5021245;27;116645;-63
2023/08/28 08:51:07;;;;;;;1.80;1.08;;;18.50;99.90;18.80;100151.00;;;;5020487;27;96472;-62
2023/08/28 08:54:05;;;;;;;1.50;1.02;;;18.60;99.90;18.90;100143.00;;;;5020127;27;87024;-61
2023/08/28 08:56:33;;;;;;;4.35;1.77;;;18.70;99.90;18.90;100148.00;;;;5021632;27;108872;-63
2023/08/28 08:59:00;;;;;;;1.40;0.90;;;18.70;99.90;18.90;100147.00;;;;5021336;27;87959;-63
2023/08/28 09:01:28;;;;;;;0.80;0.80;;;18.70;99.90;19.00;100149.00;;;;5018619;27;110612;-63
2023/08/28 09:03:56;;;;;;;6.35;1.25;;;18.80;99.90;19.10;100155.00;;;;5005763;27;88188;-63
2023/08/28 09:06:22;;;;;;;0.80;0.75;;;18.90;99.90;19.20;100148.00;;;;5019938;27;96627;-62
2023/08/28 09:08:48;;;;;;;1.48;0.75;;;19.00;99.90;19.30;100156.00;;;;5022924;27;117217;-63
2023/08/28 09:11:14;;;;;;;0.55;0.55;;;19.10;99.90;19.30;100156.00;;;;5020828;27;87809;-63
2023/08/28 09:13:42;;;;;;;0.28;0.28;;;19.10;99.90;19.30;100160.00;;;;5022508;27;101650;-61
2023/08/28 09:16:07;;;;;;;0.70;0.70;;;19.20;99.90;19.40;100158.00;;;;5020012;27;118817;-62
2023/08/28 09:18:33;;;;;;;1.08;0.63;;;19.20;99.90;19.40;100170.00;;;;5020601;27;99512;-64
2023/08/28 09:21:07;;;;;;;2.70;1.38;;;19.20;99.90;19.40;100177.00;;;;5024486;27;110368;-64
2023/08/28 09:23:34;;;;;;;0.80;0.80;;;19.20;99.90;19.50;100183.00;;;;5019978;27;87883;-63
2023/08/28 09:26:00;;;;;;;0.95;0.80;;;19.30;99.90;19.60;100195.00;;;;5020633;27;89939;-63
2023/08/28 09:28:26;;;;;;;0.88;0.50;;;19.30;99.90;19.70;100187.00;;;;5021135;27;88192;-63
2023/08/28 09:30:52;;;;;;;0.60;0.45;;;19.50;99.90;19.80;100195.00;;;;5022232;27;109665;-63
2023/08/28 09:33:18;;;;;;;0.40;0.40;;;19.50;99.90;19.90;100198.00;;;;5019643;27;109080;-62
2023/08/28 09:35:44;;;;;;;0.73;0.60;;;19.60;99.90;20.00;100208.00;;;;5023160;27;89172;-63
2023/08/28 09:38:10;;;;;;;1.35;0.82;;;19.70;99.90;20.20;100209.00;;;;5021954;27;116553;-62
2023/08/28 09:40:40;;;;;;;0.80;0.80;;;19.90;99.90;20.20;100214.00;;;;5024746;27;87992;-64
2023/08/28 09:43:13;;;;;;;0.95;0.60;;;19.90;99.90;20.10;100215.00;;;;5025069;27;86918;-62
2023/08/28 09:45:41;;;;;;;1.05;0.50;;;19.90;99.90;20.00;100208.00;;;;5024280;27;89157;-62
2023/08/28 09:48:07;;;;;;;1.20;0.55;;;19.80;99.90;19.90;100191.00;;;;5021535;27;88388;-63
2023/08/28 09:50:38;;;;;;;0.82;0.60;;;19.80;99.90;19.80;100202.00;;;;5023133;27;96047;-62
2023/08/28 09:53:14;;;;;;;1.15;0.70;;;19.70;99.90;19.80;100195.00;;;;5019845;27;90688;-61
2023/08/28 09:55:48;;;;;;;0.52;0.50;;;19.60;99.90;19.80;100187.00;;;;5023128;27;109781;-62
2023/08/28 09:58:14;;;;;;;1.67;0.63;;;19.60;99.90;19.80;100179.00;;;;5024748;27;100350;-62
2023/08/28 10:00:41;;;;;;;0.40;0.40;;;19.60;99.90;19.80;100167.00;;;;5023693;27;111399;-64
2023/08/28 10:03:09;;;;;;;1.20;0.95;;;19.60;99.90;19.80;100158.00;;;;5026338;27;87870;-63
2023/08/28 10:05:38;;;;;;;0.52;0.40;;;19.60;99.90;19.90;100152.00;;;;5027275;27;88371;-64
2023/08/28 10:08:08;;;;;;;1.60;1.08;;;19.60;99.90;20.00;100143.00;;;;5026533;27;97478;-65
2023/08/28 10:10:36;;;;;;;1.33;0.73;;;19.80;99.90;20.10;100137.00;;;;5026858;27;87945;-63
2023/08/28 10:13:05;;;;;;;0.77;0.35;;;19.80;99.90;20.20;100132.00;;;;5025087;27;87871;-63
2023/08/28 10:16:01;;;;;;;0.70;0.60;;;19.90;99.90;20.30;100129.00;;;;5023379;27;89675;-65
2023/08/28 10:18:38;;;;;;;0.75;0.50;;;20.10;99.70;20.40;100136.00;;;;5010216;27;89307;-63
2023/08/28 10:21:05;;;;;;;0.82;0.80;;;20.10;99.90;20.50;100140.00;;;;5013993;27;94179;-63
2023/08/28 10:23:33;;;;;;;0.30;0.30;;;20.20;99.90;20.60;100137.00;;;;5021883;27;87853;-62
2023/08/28 10:26:01;;;;;;;0.40;0.40;;;20.30;99.90;20.70;100131.00;;;;5006874;27;90399;-62
2023/08/28 10:28:28;;;;;;;0.30;0.30;;;20.40;99.90;20.70;100129.00;;;;5024152;27;109944;-62
2023/08/28 10:30:56;;;;;;;0.40;0.35;;;20.50;99.70;20.80;100139.00;;;;5022654;27;88032;-63
2023/08/28 10:33:22;;;;;;;0.28;0.20;;;20.50;99.30;20.80;100137.00;;;;5021936;27;87113;-62
2023/08/28 10:35:54;;;;;;;1.58;0.50;;;20.60;99.00;20.80;100138.00;;;;5029056;27;109639;-63
2023/08/28 10:38:22;;;;;;;0.38;0.38;;;20.60;98.70;20.80;100144.00;;;;5024575;27;88732;-64
2023/08/28 10:40:55;;;;;;;1.55;0.52;;;20.60;98.60;20.80;100143.00;;;;5031422;27;88451;-63
2023/08/28 10:43:22;;;;;;;0.50;0.50;;;20.60;98.30;20.80;100137.00;;;;5017381;27;88012;-63